sensor_id;sensor_type;location;lat;lon;timestamp;noise_LAeq;noise_LA_min;noise_LA_max;noise_LA01;noise_LA95
70245;Laerm;57637;49.272;8.590;2023-11-21T00:02:21;58.44;54.08;65.12;;
70245;Laerm;57637;49.272;8.590;2023-11-21T00:04:48;58.27;53.57;65.58;;
70245;Laerm;57637;49.272;8.590;2023-11-21T00:07:13;57.90;53.58;65.33;;
70245;Laerm;57637;49.272;8.590;2023-11-21T00:09:40;57.87;53.74;64.41;;
70245;Laerm;57637;49.272;8.590;2023-11-21T00:12:05;57.88;54.10;65.93;;
70245;Laerm;57637;49.272;8.590;2023-11-21T00:14:31;57.80;53.73;64.09;;
70245;Laerm;57637;49.272;8.590;2023-11-21T00:16:56;58.00;53.91;64.29;;
70245;Laerm;57637;49.272;8.590;2023-11-21T00:19:21;57.99;54.12;63.95;;
70245;Laerm;57637;49.272;8.590;2023-11-21T00:21:47;57.53;47.56;64.22;;
70245;Laerm;57637;49.272;8.590;2023-11-21T00:24:12;49.11;47.52;50.76;;
70245;Laerm;57637;49.272;8.590;2023-11-21T00:26:39;50.56;47.90;52.08;;
70245;Laerm;57637;49.272;8.590;2023-11-21T00:29:05;50.80;49.19;52.21;;
70245;Laerm;57637;49.272;8.590;2023-11-21T00:31:34;50.99;49.25;52.96;;
70245;Laerm;57637;49.272;8.590;2023-11-21T00:34:05;50.90;48.73;52.75;;
70245;Laerm;57637;49.272;8.590;2023-11-21T00:36:33;49.59;47.77;53.31;;
70245;Laerm;57637;49.272;8.590;2023-11-21T00:38:58;49.01;47.61;50.26;;
70245;Laerm;57637;49.272;8.590;2023-11-21T00:41:25;49.02;47.64;50.55;;
70245;Laerm;57637;49.272;8.590;2023-11-21T00:43:53;48.94;47.50;50.40;;
70245;Laerm;57637;49.272;8.590;2023-11-21T00:46:18;48.98;47.59;50.43;;
70245;Laerm;57637;49.272;8.590;2023-11-21T00:48:44;50.24;47.62;52.01;;
70245;Laerm;57637;49.272;8.590;2023-11-21T00:51:09;48.64;47.15;50.03;;
70245;Laerm;57637;49.272;8.590;2023-11-21T00:53:34;48.66;47.21;50.03;;
70245;Laerm;57637;49.272;8.590;2023-11-21T00:56:00;50.06;47.46;52.27;;
70245;Laerm;57637;49.272;8.590;2023-11-21T00:58:25;50.73;49.06;52.10;;
70245;Laerm;57637;49.272;8.590;2023-11-21T01:00:50;50.23;47.45;52.26;;
70245;Laerm;57637;49.272;8.590;2023-11-21T01:03:16;50.11;47.41;52.34;;
70245;Laerm;57637;49.272;8.590;2023-11-21T01:05:41;50.42;47.31;52.24;;
70245;Laerm;57637;49.272;8.590;2023-11-21T01:08:09;48.97;47.28;51.81;;
70245;Laerm;57637;49.272;8.590;2023-11-21T01:10:35;50.29;47.53;57.34;;
70245;Laerm;57637;49.272;8.590;2023-11-21T01:13:01;50.87;48.75;54.27;;
70245;Laerm;57637;49.272;8.590;2023-11-21T01:15:27;51.75;49.47;57.84;;
70245;Laerm;57637;49.272;8.590;2023-11-21T01:17:52;51.73;49.52;57.28;;
70245;Laerm;57637;49.272;8.590;2023-11-21T01:20:18;51.68;49.76;59.81;;
70245;Laerm;57637;49.272;8.590;2023-11-21T01:22:43;51.48;49.32;58.23;;
70245;Laerm;57637;49.272;8.590;2023-11-21T01:25:10;51.11;49.13;57.00;;
70245;Laerm;57637;49.272;8.590;2023-11-21T01:27:36;51.33;48.86;56.92;;
70245;Laerm;57637;49.272;8.590;2023-11-21T01:30:03;51.38;49.28;57.13;;
70245;Laerm;57637;49.272;8.590;2023-11-21T01:32:28;50.91;48.89;57.45;;
70245;Laerm;57637;49.272;8.590;2023-11-21T01:34:53;50.72;48.74;57.42;;
70245;Laerm;57637;49.272;8.590;2023-11-21T01:37:19;50.82;48.58;57.64;;
70245;Laerm;57637;49.272;8.590;2023-11-21T01:39:44;50.91;48.76;57.56;;
70245;Laerm;57637;49.272;8.590;2023-11-21T01:42:10;50.94;49.10;58.36;;
70245;Laerm;57637;49.272;8.590;2023-11-21T01:44:36;50.91;48.98;57.85;;
70245;Laerm;57637;49.272;8.590;2023-11-21T01:47:01;50.64;48.60;57.46;;
70245;Laerm;57637;49.272;8.590;2023-11-21T01:49:31;50.73;48.84;57.31;;
70245;Laerm;57637;49.272;8.590;2023-11-21T01:51:58;50.92;48.76;57.13;;
70245;Laerm;57637;49.272;8.590;2023-11-21T01:54:23;51.02;48.91;60.86;;
70245;Laerm;57637;49.272;8.590;2023-11-21T01:56:49;50.93;48.54;63.29;;
70245;Laerm;57637;49.272;8.590;2023-11-21T01:59:18;50.98;48.95;62.41;;
70245;Laerm;57637;49.272;8.590;2023-11-21T02:01:44;51.26;49.35;60.67;;
70245;Laerm;57637;49.272;8.590;2023-11-21T02:04:09;51.10;49.14;61.96;;
70245;Laerm;57637;49.272;8.590;2023-11-21T02:06:35;51.13;48.37;60.72;;
70245;Laerm;57637;49.272;8.590;2023-11-21T02:09:00;50.83;48.44;62.05;;
70245;Laerm;57637;49.272;8.590;2023-11-21T02:11:26;51.04;48.98;61.54;;
70245;Laerm;57637;49.272;8.590;2023-11-21T02:13:53;51.43;49.14;61.38;;
70245;Laerm;57637;49.272;8.590;2023-11-21T02:16:19;51.30;49.13;59.20;;
70245;Laerm;57637;49.272;8.590;2023-11-21T02:18:47;51.42;48.85;59.34;;
70245;Laerm;57637;49.272;8.590;2023-11-21T02:21:14;51.20;48.60;59.82;;
70245;Laerm;57637;49.272;8.590;2023-11-21T02:23:39;51.22;49.07;60.37;;
70245;Laerm;57637;49.272;8.590;2023-11-21T02:26:09;51.07;48.90;60.59;;
70245;Laerm;57637;49.272;8.590;2023-11-21T02:28:35;50.95;48.76;62.15;;
70245;Laerm;57637;49.272;8.590;2023-11-21T02:31:00;51.04;48.91;61.62;;
70245;Laerm;57637;49.272;8.590;2023-11-21T02:33:28;51.03;48.90;60.80;;
70245;Laerm;57637;49.272;8.590;2023-11-21T02:35:53;51.17;48.95;61.62;;
70245;Laerm;57637;49.272;8.590;2023-11-21T02:38:22;51.00;48.63;59.76;;
70245;Laerm;57637;49.272;8.590;2023-11-21T02:40:48;51.03;48.24;62.22;;
70245;Laerm;57637;49.272;8.590;2023-11-21T02:43:14;57.75;49.89;64.21;;
70245;Laerm;57637;49.272;8.590;2023-11-21T02:45:39;58.13;52.95;65.46;;
70245;Laerm;57637;49.272;8.590;2023-11-21T02:48:07;57.28;52.90;65.98;;
70245;Laerm;57637;49.272;8.590;2023-11-21T02:50:32;57.19;53.03;65.42;;
70245;Laerm;57637;49.272;8.590;2023-11-21T02:52:58;57.01;53.04;65.19;;
70245;Laerm;57637;49.272;8.590;2023-11-21T02:55:26;55.99;50.77;64.99;;
70245;Laerm;57637;49.272;8.590;2023-11-21T02:57:53;54.01;50.01;65.60;;
70245;Laerm;57637;49.272;8.590;2023-11-21T03:00:18;53.75;50.11;64.53;;
70245;Laerm;57637;49.272;8.590;2023-11-21T03:02:45;54.13;50.87;63.91;;
70245;Laerm;57637;49.272;8.590;2023-11-21T03:05:12;54.14;50.58;63.16;;
70245;Laerm;57637;49.272;8.590;2023-11-21T03:07:38;53.53;50.38;64.34;;
70245;Laerm;57637;49.272;8.590;2023-11-21T03:10:04;53.19;50.79;63.56;;
70245;Laerm;57637;49.272;8.590;2023-11-21T03:12:30;53.58;50.13;63.83;;
70245;Laerm;57637;49.272;8.590;2023-11-21T03:14:55;53.41;50.36;64.23;;
70245;Laerm;57637;49.272;8.590;2023-11-21T03:17:21;54.23;51.15;63.09;;
70245;Laerm;57637;49.272;8.590;2023-11-21T03:19:46;54.78;52.51;63.41;;
70245;Laerm;57637;49.272;8.590;2023-11-21T03:22:11;54.76;51.25;63.78;;
70245;Laerm;57637;49.272;8.590;2023-11-21T03:24:37;54.34;51.37;65.10;;
70245;Laerm;57637;49.272;8.590;2023-11-21T03:27:04;53.25;50.01;61.50;;
70245;Laerm;57637;49.272;8.590;2023-11-21T03:29:29;52.59;49.52;62.15;;
70245;Laerm;57637;49.272;8.590;2023-11-21T03:31:54;52.63;49.26;60.96;;
70245;Laerm;57637;49.272;8.590;2023-11-21T03:34:25;53.37;48.40;61.62;;
70245;Laerm;57637;49.272;8.590;2023-11-21T03:36:53;53.28;49.65;58.71;;
70245;Laerm;57637;49.272;8.590;2023-11-21T03:39:20;53.26;49.47;61.13;;
70245;Laerm;57637;49.272;8.590;2023-11-21T03:41:46;53.25;49.32;59.74;;
70245;Laerm;57637;49.272;8.590;2023-11-21T03:44:11;53.43;49.50;61.67;;
70245;Laerm;57637;49.272;8.590;2023-11-21T03:46:36;53.55;49.50;63.75;;
70245;Laerm;57637;49.272;8.590;2023-11-21T03:49:02;53.52;50.09;62.00;;
70245;Laerm;57637;49.272;8.590;2023-11-21T03:51:27;52.63;49.55;63.51;;
70245;Laerm;57637;49.272;8.590;2023-11-21T03:53:53;52.44;49.29;61.17;;
70245;Laerm;57637;49.272;8.590;2023-11-21T03:56:19;52.45;49.90;61.98;;
70245;Laerm;57637;49.272;8.590;2023-11-21T03:58:47;52.39;49.21;62.07;;
70245;Laerm;57637;49.272;8.590;2023-11-21T04:01:19;52.57;48.82;62.67;;
70245;Laerm;57637;49.272;8.590;2023-11-21T04:03:46;52.66;49.71;61.83;;
70245;Laerm;57637;49.272;8.590;2023-11-21T04:06:11;52.86;50.20;62.84;;
70245;Laerm;57637;49.272;8.590;2023-11-21T04:08:36;52.80;49.48;61.30;;
70245;Laerm;57637;49.272;8.590;2023-11-21T04:11:02;52.48;49.09;61.80;;
70245;Laerm;57637;49.272;8.590;2023-11-21T04:13:27;52.54;48.92;62.48;;
70245;Laerm;57637;49.272;8.590;2023-11-21T04:15:52;52.84;49.47;59.65;;
70245;Laerm;57637;49.272;8.590;2023-11-21T04:18:18;51.40;49.20;58.60;;
70245;Laerm;57637;49.272;8.590;2023-11-21T04:20:43;50.94;48.86;59.76;;
70245;Laerm;57637;49.272;8.590;2023-11-21T04:23:09;50.50;48.19;59.02;;
70245;Laerm;57637;49.272;8.590;2023-11-21T04:25:35;50.37;48.12;60.17;;
70245;Laerm;57637;49.272;8.590;2023-11-21T04:28:00;51.09;48.61;57.82;;
70245;Laerm;57637;49.272;8.590;2023-11-21T04:30:26;50.90;48.53;58.58;;
70245;Laerm;57637;49.272;8.590;2023-11-21T04:32:51;50.62;48.80;56.97;;
70245;Laerm;57637;49.272;8.590;2023-11-21T04:35:17;50.62;48.72;55.67;;
70245;Laerm;57637;49.272;8.590;2023-11-21T04:37:42;50.34;48.33;57.29;;
70245;Laerm;57637;49.272;8.590;2023-11-21T04:40:08;49.90;48.32;56.64;;
70245;Laerm;57637;49.272;8.590;2023-11-21T04:42:36;49.74;48.43;53.72;;
70245;Laerm;57637;49.272;8.590;2023-11-21T04:45:04;50.14;48.50;53.21;;
70245;Laerm;57637;49.272;8.590;2023-11-21T04:47:33;50.34;48.94;53.45;;
70245;Laerm;57637;49.272;8.590;2023-11-21T04:49:58;50.56;48.93;53.50;;
70245;Laerm;57637;49.272;8.590;2023-11-21T04:52:24;50.81;49.10;53.01;;
70245;Laerm;57637;49.272;8.590;2023-11-21T04:54:49;50.92;48.86;54.11;;
70245;Laerm;57637;49.272;8.590;2023-11-21T04:57:15;51.06;48.30;67.12;;
70245;Laerm;57637;49.272;8.590;2023-11-21T04:59:43;50.72;48.76;52.88;;
70245;Laerm;57637;49.272;8.590;2023-11-21T05:02:08;50.59;48.66;52.96;;
70245;Laerm;57637;49.272;8.590;2023-11-21T05:04:34;50.73;48.90;53.01;;
70245;Laerm;57637;49.272;8.590;2023-11-21T05:06:59;50.08;48.21;52.54;;
70245;Laerm;57637;49.272;8.590;2023-11-21T05:09:25;49.55;47.72;51.61;;
70245;Laerm;57637;49.272;8.590;2023-11-21T05:11:51;49.69;48.02;51.95;;
70245;Laerm;57637;49.272;8.590;2023-11-21T05:14:18;49.79;47.83;52.35;;
70245;Laerm;57637;49.272;8.590;2023-11-21T05:16:44;49.73;48.20;52.56;;
70245;Laerm;57637;49.272;8.590;2023-11-21T05:19:09;49.68;48.07;54.06;;
70245;Laerm;57637;49.272;8.590;2023-11-21T05:21:35;49.65;47.63;52.22;;
70245;Laerm;57637;49.272;8.590;2023-11-21T05:24:01;49.61;47.35;52.32;;
70245;Laerm;57637;49.272;8.590;2023-11-21T05:26:26;49.64;47.76;52.29;;
70245;Laerm;57637;49.272;8.590;2023-11-21T05:28:52;49.56;47.28;52.74;;
70245;Laerm;57637;49.272;8.590;2023-11-21T05:31:18;49.55;47.65;52.19;;
70245;Laerm;57637;49.272;8.590;2023-11-21T05:33:43;49.42;47.53;52.27;;
70245;Laerm;57637;49.272;8.590;2023-11-21T05:36:09;49.42;47.37;51.91;;
70245;Laerm;57637;49.272;8.590;2023-11-21T05:38:35;49.41;47.67;52.06;;
70245;Laerm;57637;49.272;8.590;2023-11-21T05:41:02;50.93;47.14;58.07;;
70245;Laerm;57637;49.272;8.590;2023-11-21T05:43:28;52.67;50.44;60.12;;
70245;Laerm;57637;49.272;8.590;2023-11-21T05:45:55;52.24;49.90;55.85;;
70245;Laerm;57637;49.272;8.590;2023-11-21T05:48:21;51.99;48.97;57.05;;
70245;Laerm;57637;49.272;8.590;2023-11-21T05:50:46;50.51;48.47;53.19;;
70245;Laerm;57637;49.272;8.590;2023-11-21T05:53:13;50.60;48.41;53.09;;
70245;Laerm;57637;49.272;8.590;2023-11-21T05:55:41;50.55;48.50;53.44;;
70245;Laerm;57637;49.272;8.590;2023-11-21T05:58:07;50.38;48.35;52.65;;
70245;Laerm;57637;49.272;8.590;2023-11-21T06:00:32;50.39;48.50;53.79;;
70245;Laerm;57637;49.272;8.590;2023-11-21T06:02:58;50.37;48.34;52.93;;
70245;Laerm;57637;49.272;8.590;2023-11-21T06:05:25;50.36;48.38;52.53;;
70245;Laerm;57637;49.272;8.590;2023-11-21T06:07:55;50.71;48.64;53.29;;
70245;Laerm;57637;49.272;8.590;2023-11-21T06:10:24;50.69;48.86;53.02;;
70245;Laerm;57637;49.272;8.590;2023-11-21T06:12:50;50.66;48.48;53.26;;
70245;Laerm;57637;49.272;8.590;2023-11-21T06:15:16;50.58;48.62;54.59;;
70245;Laerm;57637;49.272;8.590;2023-11-21T06:17:44;50.66;48.85;52.98;;
70245;Laerm;57637;49.272;8.590;2023-11-21T06:20:14;50.84;48.84;53.75;;
70245;Laerm;57637;49.272;8.590;2023-11-21T06:22:43;51.12;48.42;53.88;;
70245;Laerm;57637;49.272;8.590;2023-11-21T06:25:10;51.05;48.73;54.54;;
70245;Laerm;57637;49.272;8.590;2023-11-21T06:27:40;50.99;48.49;54.06;;
70245;Laerm;57637;49.272;8.590;2023-11-21T06:30:06;51.32;48.71;54.13;;
70245;Laerm;57637;49.272;8.590;2023-11-21T06:32:32;51.15;48.91;54.92;;
70245;Laerm;57637;49.272;8.590;2023-11-21T06:34:58;51.28;48.41;55.87;;
70245;Laerm;57637;49.272;8.590;2023-11-21T06:37:27;51.09;48.49;55.94;;
70245;Laerm;57637;49.272;8.590;2023-11-21T06:39:53;52.45;48.46;57.29;;
70245;Laerm;57637;49.272;8.590;2023-11-21T06:42:19;52.48;49.71;57.09;;
70245;Laerm;57637;49.272;8.590;2023-11-21T06:44:48;52.66;49.62;56.42;;
70245;Laerm;57637;49.272;8.590;2023-11-21T06:47:14;52.73;49.64;56.58;;
70245;Laerm;57637;49.272;8.590;2023-11-21T06:49:42;52.15;49.70;56.01;;
70245;Laerm;57637;49.272;8.590;2023-11-21T06:52:08;52.06;49.31;56.06;;
70245;Laerm;57637;49.272;8.590;2023-11-21T06:54:33;51.92;48.92;55.56;;
70245;Laerm;57637;49.272;8.590;2023-11-21T06:56:59;52.26;49.39;55.71;;
70245;Laerm;57637;49.272;8.590;2023-11-21T06:59:25;52.61;49.45;57.52;;
70245;Laerm;57637;49.272;8.590;2023-11-21T07:01:50;52.63;49.81;56.03;;
70245;Laerm;57637;49.272;8.590;2023-11-21T07:04:16;52.22;49.28;57.02;;
70245;Laerm;57637;49.272;8.590;2023-11-21T07:06:42;52.61;49.18;56.21;;
70245;Laerm;57637;49.272;8.590;2023-11-21T07:09:08;52.66;49.90;56.29;;
70245;Laerm;57637;49.272;8.590;2023-11-21T07:11:35;52.73;49.68;56.30;;
70245;Laerm;57637;49.272;8.590;2023-11-21T07:14:00;53.18;49.99;57.54;;
70245;Laerm;57637;49.272;8.590;2023-11-21T07:16:35;53.11;50.02;57.22;;
70245;Laerm;57637;49.272;8.590;2023-11-21T07:19:05;52.43;49.47;56.43;;
70245;Laerm;57637;49.272;8.590;2023-11-21T07:21:34;51.87;49.06;56.03;;
70245;Laerm;57637;49.272;8.590;2023-11-21T07:24:04;52.26;49.02;58.26;;
70245;Laerm;57637;49.272;8.590;2023-11-21T07:26:31;52.23;48.90;56.82;;
70245;Laerm;57637;49.272;8.590;2023-11-21T07:28:56;53.52;50.57;55.99;;
70245;Laerm;57637;49.272;8.590;2023-11-21T07:31:22;53.37;50.65;56.25;;
70245;Laerm;57637;49.272;8.590;2023-11-21T07:33:49;53.18;50.71;56.09;;
70245;Laerm;57637;49.272;8.590;2023-11-21T07:36:15;53.31;50.49;56.30;;
70245;Laerm;57637;49.272;8.590;2023-11-21T07:38:42;53.63;50.66;56.50;;
70245;Laerm;57637;49.272;8.590;2023-11-21T07:41:07;53.87;50.80;56.43;;
70245;Laerm;57637;49.272;8.590;2023-11-21T07:43:35;53.96;51.03;56.51;;
70245;Laerm;57637;49.272;8.590;2023-11-21T07:46:04;53.58;50.57;55.94;;
70245;Laerm;57637;49.272;8.590;2023-11-21T07:48:33;53.74;50.86;56.34;;
70245;Laerm;57637;49.272;8.590;2023-11-21T07:51:00;53.63;50.63;56.54;;
70245;Laerm;57637;49.272;8.590;2023-11-21T07:53:26;53.90;50.64;57.02;;
70245;Laerm;57637;49.272;8.590;2023-11-21T07:55:54;53.85;50.89;56.49;;
70245;Laerm;57637;49.272;8.590;2023-11-21T07:58:20;53.47;50.24;55.80;;
70245;Laerm;57637;49.272;8.590;2023-11-21T08:00:45;53.40;50.27;56.21;;
70245;Laerm;57637;49.272;8.590;2023-11-21T08:03:10;53.79;51.00;56.38;;
70245;Laerm;57637;49.272;8.590;2023-11-21T08:05:36;53.86;50.75;56.87;;
70245;Laerm;57637;49.272;8.590;2023-11-21T08:08:02;53.52;50.70;56.20;;
70245;Laerm;57637;49.272;8.590;2023-11-21T08:10:27;53.39;50.27;56.13;;
70245;Laerm;57637;49.272;8.590;2023-11-21T08:12:53;52.72;49.46;55.06;;
70245;Laerm;57637;49.272;8.590;2023-11-21T08:15:19;52.62;49.65;54.88;;
70245;Laerm;57637;49.272;8.590;2023-11-21T08:17:45;51.85;49.64;54.67;;
70245;Laerm;57637;49.272;8.590;2023-11-21T08:20:11;52.09;49.09;54.61;;
70245;Laerm;57637;49.272;8.590;2023-11-21T08:22:37;52.27;49.60;54.49;;
70245;Laerm;57637;49.272;8.590;2023-11-21T08:25:03;51.77;49.38;54.09;;
70245;Laerm;57637;49.272;8.590;2023-11-21T08:27:31;51.79;49.14;54.22;;
70245;Laerm;57637;49.272;8.590;2023-11-21T08:29:56;51.88;49.58;54.04;;
70245;Laerm;57637;49.272;8.590;2023-11-21T08:32:22;51.69;49.45;54.24;;
70245;Laerm;57637;49.272;8.590;2023-11-21T08:34:47;51.64;49.56;53.82;;
70245;Laerm;57637;49.272;8.590;2023-11-21T08:37:16;51.58;48.96;54.09;;
70245;Laerm;57637;49.272;8.590;2023-11-21T08:39:43;51.43;48.98;53.92;;
70245;Laerm;57637;49.272;8.590;2023-11-21T08:42:08;51.61;49.34;54.47;;
70245;Laerm;57637;49.272;8.590;2023-11-21T08:44:33;51.48;49.05;54.21;;
70245;Laerm;57637;49.272;8.590;2023-11-21T08:46:59;51.68;49.06;54.00;;
70245;Laerm;57637;49.272;8.590;2023-11-21T08:49:24;51.49;49.05;54.34;;
70245;Laerm;57637;49.272;8.590;2023-11-21T08:51:52;51.40;49.01;53.97;;
70245;Laerm;57637;49.272;8.590;2023-11-21T08:54:20;51.33;48.25;53.70;;
70245;Laerm;57637;49.272;8.590;2023-11-21T08:56:46;51.58;49.01;54.27;;
70245;Laerm;57637;49.272;8.590;2023-11-21T08:59:11;51.35;48.74;53.73;;
70245;Laerm;57637;49.272;8.590;2023-11-21T09:01:40;51.64;49.10;54.97;;
70245;Laerm;57637;49.272;8.590;2023-11-21T09:04:06;49.62;47.60;53.31;;
70245;Laerm;57637;49.272;8.590;2023-11-21T09:06:31;49.59;47.85;51.69;;
70245;Laerm;57637;49.272;8.590;2023-11-21T09:08:57;49.74;47.72;52.14;;
70245;Laerm;57637;49.272;8.590;2023-11-21T09:11:22;49.94;48.16;52.23;;
70245;Laerm;57637;49.272;8.590;2023-11-21T09:13:50;49.86;47.82;52.08;;
70245;Laerm;57637;49.272;8.590;2023-11-21T09:16:16;49.89;47.74;52.00;;
70245;Laerm;57637;49.272;8.590;2023-11-21T09:18:42;50.13;47.92;52.43;;
70245;Laerm;57637;49.272;8.590;2023-11-21T09:21:07;50.15;48.23;52.28;;
70245;Laerm;57637;49.272;8.590;2023-11-21T09:23:34;50.13;47.85;52.16;;
70245;Laerm;57637;49.272;8.590;2023-11-21T09:25:59;49.91;48.11;51.81;;
70245;Laerm;57637;49.272;8.590;2023-11-21T09:28:26;50.52;47.94;53.26;;
70245;Laerm;57637;49.272;8.590;2023-11-21T09:30:53;51.16;49.10;54.11;;
70245;Laerm;57637;49.272;8.590;2023-11-21T09:33:18;51.33;49.16;57.69;;
70245;Laerm;57637;49.272;8.590;2023-11-21T09:35:44;51.32;49.23;53.68;;
70245;Laerm;57637;49.272;8.590;2023-11-21T09:38:10;51.20;49.03;53.42;;
70245;Laerm;57637;49.272;8.590;2023-11-21T09:40:37;51.45;49.32;53.72;;
70245;Laerm;57637;49.272;8.590;2023-11-21T09:43:06;51.28;49.35;53.38;;
70245;Laerm;57637;49.272;8.590;2023-11-21T09:45:38;51.17;49.16;53.38;;
70245;Laerm;57637;49.272;8.590;2023-11-21T09:48:04;51.07;49.08;52.99;;
70245;Laerm;57637;49.272;8.590;2023-11-21T09:50:32;51.25;49.19;53.20;;
70245;Laerm;57637;49.272;8.590;2023-11-21T09:53:17;51.07;49.05;53.32;;
70245;Laerm;57637;49.272;8.590;2023-11-21T09:55:44;51.03;48.95;53.02;;
70245;Laerm;57637;49.272;8.590;2023-11-21T09:58:11;51.01;48.57;53.97;;
70245;Laerm;57637;49.272;8.590;2023-11-21T10:00:50;50.96;48.64;53.43;;
70245;Laerm;57637;49.272;8.590;2023-11-21T10:03:17;50.74;48.64;53.05;;
70245;Laerm;57637;49.272;8.590;2023-11-21T10:05:44;50.83;48.76;53.89;;
70245;Laerm;57637;49.272;8.590;2023-11-21T10:08:12;50.93;49.02;53.07;;
70245;Laerm;57637;49.272;8.590;2023-11-21T10:10:40;50.95;48.90;53.13;;
70245;Laerm;57637;49.272;8.590;2023-11-21T10:13:14;50.90;48.96;53.14;;
70245;Laerm;57637;49.272;8.590;2023-11-21T10:15:42;50.79;48.64;53.50;;
70245;Laerm;57637;49.272;8.590;2023-11-21T10:18:14;50.83;48.85;55.44;;
70245;Laerm;57637;49.272;8.590;2023-11-21T10:20:40;50.92;49.09;53.22;;
70245;Laerm;57637;49.272;8.590;2023-11-21T10:23:06;50.77;48.80;52.87;;
70245;Laerm;57637;49.272;8.590;2023-11-21T10:25:32;50.66;48.82;53.07;;
70245;Laerm;57637;49.272;8.590;2023-11-21T10:27:59;50.87;49.06;53.02;;
70245;Laerm;57637;49.272;8.590;2023-11-21T10:30:34;50.83;48.89;53.15;;
70245;Laerm;57637;49.272;8.590;2023-11-21T10:33:06;50.72;48.81;53.12;;
70245;Laerm;57637;49.272;8.590;2023-11-21T10:35:48;50.78;48.80;53.02;;
70245;Laerm;57637;49.272;8.590;2023-11-21T10:38:18;50.76;48.67;52.76;;
70245;Laerm;57637;49.272;8.590;2023-11-21T10:40:46;50.68;48.63;52.94;;
70245;Laerm;57637;49.272;8.590;2023-11-21T10:43:13;50.67;48.63;53.73;;
70245;Laerm;57637;49.272;8.590;2023-11-21T10:45:41;51.54;48.90;56.29;;
70245;Laerm;57637;49.272;8.590;2023-11-21T10:48:13;51.82;49.52;54.50;;
70245;Laerm;57637;49.272;8.590;2023-11-21T10:50:43;51.85;49.54;55.00;;
70245;Laerm;57637;49.272;8.590;2023-11-21T10:53:09;52.06;49.41;55.21;;
70245;Laerm;57637;49.272;8.590;2023-11-21T10:55:34;51.88;49.26;55.85;;
70245;Laerm;57637;49.272;8.590;2023-11-21T10:58:04;50.81;48.92;52.89;;
70245;Laerm;57637;49.272;8.590;2023-11-21T11:00:31;50.85;48.99;53.20;;
70245;Laerm;57637;49.272;8.590;2023-11-21T11:02:58;50.82;49.09;52.70;;
70245;Laerm;57637;49.272;8.590;2023-11-21T11:05:28;50.95;49.21;53.19;;
70245;Laerm;57637;49.272;8.590;2023-11-21T11:08:05;50.77;48.81;52.65;;
70245;Laerm;57637;49.272;8.590;2023-11-21T11:10:31;50.77;49.00;52.59;;
70245;Laerm;57637;49.272;8.590;2023-11-21T11:12:58;51.03;49.29;53.14;;
70245;Laerm;57637;49.272;8.590;2023-11-21T11:15:25;50.98;49.20;52.86;;
70245;Laerm;57637;49.272;8.590;2023-11-21T11:17:51;50.94;48.94;55.88;;
70245;Laerm;57637;49.272;8.590;2023-11-21T11:20:17;50.91;49.09;52.86;;
70245;Laerm;57637;49.272;8.590;2023-11-21T11:23:10;50.85;48.86;53.04;;
70245;Laerm;57637;49.272;8.590;2023-11-21T11:28:28;50.98;49.03;55.73;;
70245;Laerm;57637;49.272;8.590;2023-11-21T11:31:27;51.16;48.93;53.14;;
70245;Laerm;57637;49.272;8.590;2023-11-21T11:34:01;51.26;49.39;54.33;;
70245;Laerm;57637;49.272;8.590;2023-11-21T11:36:53;51.41;49.37;54.15;;
70245;Laerm;57637;49.272;8.590;2023-11-21T11:39:40;51.65;49.72;53.96;;
70245;Laerm;57637;49.272;8.590;2023-11-21T11:42:12;51.35;49.10;55.10;;
70245;Laerm;57637;49.272;8.590;2023-11-21T11:47:31;51.24;49.25;53.80;;
70245;Laerm;57637;49.272;8.590;2023-11-21T11:50:06;51.31;49.18;53.33;;
70245;Laerm;57637;49.272;8.590;2023-11-21T11:52:43;51.29;49.32;53.61;;
70245;Laerm;57637;49.272;8.590;2023-11-21T11:55:13;51.23;48.96;53.75;;
70245;Laerm;57637;49.272;8.590;2023-11-21T11:57:41;51.28;49.17;53.78;;
70245;Laerm;57637;49.272;8.590;2023-11-21T12:02:54;52.04;50.21;55.92;;
70245;Laerm;57637;49.272;8.590;2023-11-21T12:05:21;51.18;49.27;53.51;;
70245;Laerm;57637;49.272;8.590;2023-11-21T12:07:52;51.07;49.33;53.02;;
70245;Laerm;57637;49.272;8.590;2023-11-21T12:10:24;50.87;49.04;52.80;;
70245;Laerm;57637;49.272;8.590;2023-11-21T12:13:01;50.97;49.14;53.46;;
70245;Laerm;57637;49.272;8.590;2023-11-21T12:15:27;50.84;49.25;52.97;;
70245;Laerm;57637;49.272;8.590;2023-11-21T12:17:55;50.90;49.23;53.45;;
70245;Laerm;57637;49.272;8.590;2023-11-21T12:20:22;50.84;48.98;52.83;;
70245;Laerm;57637;49.272;8.590;2023-11-21T12:22:53;50.91;49.16;52.91;;
70245;Laerm;57637;49.272;8.590;2023-11-21T12:25:26;50.97;49.22;52.76;;
70245;Laerm;57637;49.272;8.590;2023-11-21T12:27:55;51.11;49.42;52.84;;
70245;Laerm;57637;49.272;8.590;2023-11-21T12:30:21;51.43;48.75;55.17;;
70245;Laerm;57637;49.272;8.590;2023-11-21T12:32:49;51.23;49.12;53.84;;
70245;Laerm;57637;49.272;8.590;2023-11-21T12:35:17;51.56;49.89;53.75;;
70245;Laerm;57637;49.272;8.590;2023-11-21T12:37:45;51.51;49.14;53.35;;
70245;Laerm;57637;49.272;8.590;2023-11-21T12:40:11;50.74;48.82;52.99;;
70245;Laerm;57637;49.272;8.590;2023-11-21T12:42:41;50.86;48.97;53.80;;
70245;Laerm;57637;49.272;8.590;2023-11-21T12:47:48;50.52;48.92;52.73;;
70245;Laerm;57637;49.272;8.590;2023-11-21T12:50:20;50.38;48.77;52.48;;
70245;Laerm;57637;49.272;8.590;2023-11-21T12:52:49;50.58;48.59;52.72;;
70245;Laerm;57637;49.272;8.590;2023-11-21T12:55:16;50.60;48.55;53.43;;
70245;Laerm;57637;49.272;8.590;2023-11-21T12:57:45;50.86;48.98;53.76;;
70245;Laerm;57637;49.272;8.590;2023-11-21T13:00:13;50.75;48.80;53.43;;
70245;Laerm;57637;49.272;8.590;2023-11-21T13:02:51;50.58;48.52;53.28;;
70245;Laerm;57637;49.272;8.590;2023-11-21T13:07:50;51.42;49.12;53.85;;
70245;Laerm;57637;49.272;8.590;2023-11-21T13:10:21;51.69;48.96;55.25;;
70245;Laerm;57637;49.272;8.590;2023-11-21T13:12:51;51.57;49.43;54.80;;
70245;Laerm;57637;49.272;8.590;2023-11-21T13:15:17;51.97;49.67;55.32;;
70245;Laerm;57637;49.272;8.590;2023-11-21T13:17:46;51.47;49.33;54.67;;
70245;Laerm;57637;49.272;8.590;2023-11-21T13:20:12;51.50;49.27;54.39;;
70245;Laerm;57637;49.272;8.590;2023-11-21T13:22:51;51.73;49.23;54.93;;
70245;Laerm;57637;49.272;8.590;2023-11-21T13:25:23;51.62;49.50;55.86;;
70245;Laerm;57637;49.272;8.590;2023-11-21T13:27:48;51.63;49.20;55.04;;
70245;Laerm;57637;49.272;8.590;2023-11-21T13:30:15;51.80;49.58;54.76;;
70245;Laerm;57637;49.272;8.590;2023-11-21T13:32:44;52.10;49.53;55.20;;
70245;Laerm;57637;49.272;8.590;2023-11-21T13:35:16;55.17;49.36;66.41;;
70245;Laerm;57637;49.272;8.590;2023-11-21T13:37:56;52.40;50.14;56.08;;
70245;Laerm;57637;49.272;8.590;2023-11-21T13:40:26;52.16;50.47;54.50;;
70245;Laerm;57637;49.272;8.590;2023-11-21T13:42:55;52.29;50.29;54.02;;
70245;Laerm;57637;49.272;8.590;2023-11-21T13:45:23;52.19;50.63;55.32;;
70245;Laerm;57637;49.272;8.590;2023-11-21T13:47:50;52.42;50.86;55.42;;
70245;Laerm;57637;49.272;8.590;2023-11-21T13:50:26;52.72;50.90;54.61;;
70245;Laerm;57637;49.272;8.590;2023-11-21T13:53:01;52.78;51.20;55.35;;
70245;Laerm;57637;49.272;8.590;2023-11-21T13:55:51;53.04;50.53;56.19;;
70245;Laerm;57637;49.272;8.590;2023-11-21T13:58:20;51.40;49.32;57.00;;
70245;Laerm;57637;49.272;8.590;2023-11-21T14:00:50;50.64;49.11;53.77;;